createdAt,value
2023-05-07T00:00:46.692Z,97530.47
2023-05-07T00:03:16.720Z,97523.03
2023-05-07T00:05:46.967Z,97525.85
2023-05-07T00:08:14.811Z,97523.30
2023-05-07T00:10:42.701Z,97519.34
2023-05-07T00:13:10.863Z,97520.03
2023-05-07T00:15:38.561Z,97515.55
2023-05-07T00:18:06.307Z,97519.72
2023-05-07T00:20:36.024Z,97516.91
2023-05-07T00:23:03.792Z,97517.23
2023-05-07T00:25:31.422Z,97518.38
2023-05-07T00:28:00.864Z,97523.35
2023-05-07T00:30:28.776Z,97522.44
2023-05-07T00:32:56.623Z,97526.38
2023-05-07T00:35:24.391Z,97527.88
2023-05-07T00:37:52.147Z,97535.06
2023-05-07T00:40:20.257Z,97531.36
2023-05-07T00:42:49.423Z,97533.28
2023-05-07T00:45:17.657Z,97529.55
2023-05-07T00:47:45.285Z,97533.17
2023-05-07T00:50:14.163Z,97533.50
2023-05-07T00:52:42.826Z,97533.28
2023-05-07T00:55:11.031Z,97532.61
2023-05-07T00:57:41.472Z,97526.50
2023-05-07T01:00:10.599Z,97521.56
2023-05-07T01:02:39.969Z,97529.23
2023-05-07T01:05:12.021Z,97526.64
2023-05-07T01:07:41.667Z,97524.61
2023-05-07T01:10:11.039Z,97524.39
2023-05-07T01:12:41.265Z,97523.72
2023-05-07T01:15:10.617Z,97527.88
2023-05-07T01:17:41.699Z,97533.16
2023-05-07T01:20:12.400Z,97531.70
2023-05-07T01:22:41.218Z,97526.41
2023-05-07T01:25:09.724Z,97526.42
2023-05-07T01:27:38.876Z,97526.52
2023-05-07T01:30:08.103Z,97521.80
2023-05-07T01:32:46.749Z,97519.33
2023-05-07T01:35:25.618Z,97519.31
2023-05-07T01:37:54.181Z,97513.23
2023-05-07T01:40:22.398Z,97520.09
2023-05-07T01:42:49.843Z,97512.69
2023-05-07T01:45:17.818Z,97512.12
2023-05-07T01:47:45.705Z,97517.84
2023-05-07T01:50:15.272Z,97515.92
2023-05-07T01:52:43.065Z,97518.97
2023-05-07T01:55:10.757Z,97524.37
2023-05-07T01:57:38.361Z,97523.58
2023-05-07T02:00:09.352Z,97520.10
2023-05-07T02:02:43.326Z,97521.10
2023-05-07T02:05:12.764Z,97523.36
2023-05-07T02:07:41.718Z,97517.38
2023-05-07T02:10:10.733Z,97514.78
2023-05-07T02:12:38.636Z,97517.27
2023-05-07T02:15:07.358Z,97518.97
2023-05-07T02:17:37.237Z,97515.80
2023-05-07T02:20:07.768Z,97511.28
2023-05-07T02:22:35.254Z,97512.52
2023-05-07T02:25:03.119Z,97509.70
2023-05-07T02:27:31.036Z,97500.92
2023-05-07T02:29:58.614Z,97499.80
2023-05-07T02:32:26.326Z,97503.84
2023-05-07T02:34:54.271Z,97496.63
2023-05-07T02:37:22.096Z,97502.38
2023-05-07T02:39:49.810Z,97506.77
2023-05-07T02:42:18.059Z,97510.00
2023-05-07T02:44:45.636Z,97508.12
2023-05-07T02:47:15.726Z,97506.20
2023-05-07T02:49:43.993Z,97510.47
2023-05-07T02:52:11.616Z,97513.06
2023-05-07T02:54:39.186Z,97511.59
2023-05-07T02:57:06.710Z,97512.06
2023-05-07T02:59:34.393Z,97513.31
2023-05-07T03:02:02.322Z,97519.61
2023-05-07T03:04:31.146Z,97516.81
2023-05-07T03:06:59.094Z,97523.43
2023-05-07T03:09:26.759Z,97526.38
2023-05-07T03:11:54.188Z,97521.20
2023-05-07T03:14:21.637Z,97529.86
2023-05-07T03:16:50.698Z,97523.11
2023-05-07T03:19:18.397Z,97524.46
2023-05-07T03:21:46.173Z,97523.99
2023-05-07T03:24:13.721Z,97523.21
2023-05-07T03:26:41.268Z,97531.30
2023-05-07T03:29:08.703Z,97524.56
2023-05-07T03:31:36.323Z,97531.52
2023-05-07T03:34:04.787Z,97539.30
2023-05-07T03:36:32.602Z,97536.04
2023-05-07T03:39:00.607Z,97543.00
2023-05-07T03:41:30.228Z,97542.91
2023-05-07T03:43:58.192Z,97541.45
2023-05-07T03:46:26.902Z,97542.45
2023-05-07T03:48:54.813Z,97548.08
2023-05-07T03:51:22.587Z,97551.02
2023-05-07T03:53:50.224Z,97551.70
2023-05-07T03:56:21.466Z,97554.06
2023-05-07T03:58:50.977Z,97551.58
2023-05-07T04:01:18.604Z,97555.63
2023-05-07T04:03:46.755Z,97555.75
2023-05-07T04:06:16.172Z,97557.00
2023-05-07T04:08:45.045Z,97552.06
2023-05-07T04:11:13.135Z,97555.66
2023-05-07T04:13:40.712Z,97560.71
2023-05-07T04:16:09.517Z,97555.00
2023-05-07T04:18:37.904Z,97553.52
2023-05-07T04:21:06.430Z,97554.33
2023-05-07T04:23:34.707Z,97553.20
2023-05-07T04:26:03.621Z,97555.23
2023-05-07T04:28:33.092Z,97556.02
2023-05-07T04:31:00.823Z,97557.26
2023-05-07T04:33:28.852Z,97558.83
2023-05-07T04:35:57.290Z,97565.80
2023-05-07T04:38:24.823Z,97568.84
2023-05-07T04:40:53.378Z,97575.25
2023-05-07T04:43:22.464Z,97569.28
2023-05-07T04:45:52.882Z,97572.77
2023-05-07T04:48:21.037Z,97572.45
2023-05-07T04:50:50.665Z,97571.31
2023-05-07T04:53:19.231Z,97570.18
2023-05-07T04:55:47.071Z,97576.39
2023-05-07T04:58:14.754Z,97570.86
2023-05-07T05:00:42.983Z,97577.06
2023-05-07T05:03:11.782Z,97577.64
2023-05-07T05:05:40.255Z,97578.87
2023-05-07T05:08:08.677Z,97579.80
2023-05-07T05:10:38.305Z,97585.87
2023-05-07T05:13:06.891Z,97586.98
2023-05-07T05:15:34.744Z,97592.05
2023-05-07T05:18:04.155Z,97592.86
2023-05-07T05:20:35.951Z,97590.94
2023-05-07T05:23:12.253Z,97598.69
2023-05-07T05:25:42.176Z,97597.48
2023-05-07T05:28:11.218Z,97603.77
2023-05-07T05:30:40.213Z,97598.83
2023-05-07T05:33:08.867Z,97595.23
2023-05-07T05:35:36.983Z,97590.71
2023-05-07T05:38:06.034Z,97586.09
2023-05-07T05:40:35.665Z,97594.77
2023-05-07T05:43:03.409Z,97595.11
2023-05-07T05:45:32.034Z,97590.28
2023-05-07T05:48:00.564Z,97596.11
2023-05-07T05:50:28.294Z,97593.66
2023-05-07T05:52:56.929Z,97594.31
2023-05-07T05:55:26.025Z,97594.20
2023-05-07T05:57:53.693Z,97598.58
2023-05-07T06:00:24.909Z,97596.45
2023-05-07T06:02:54.341Z,97600.72
2023-05-07T06:05:23.917Z,97602.18
2023-05-07T06:07:53.154Z,97604.10
2023-05-07T06:10:20.789Z,97605.34
2023-05-07T06:12:49.551Z,97601.50
2023-05-07T06:15:21.278Z,97605.20
2023-05-07T06:17:49.705Z,97606.77
2023-05-07T06:20:18.334Z,97611.13
2023-05-07T06:22:48.385Z,97604.11
2023-05-07T06:26:04.314Z,97602.84
2023-05-07T06:28:36.431Z,97600.91
2023-05-07T06:31:16.236Z,97602.77
2023-05-07T06:33:45.929Z,97607.95
2023-05-07T06:36:14.631Z,97606.91
2023-05-07T06:38:42.680Z,97610.70
2023-05-07T06:41:10.462Z,97617.35
2023-05-07T06:43:39.886Z,97619.97
2023-05-07T06:46:15.494Z,97618.73
2023-05-07T06:48:43.355Z,97617.64
2023-05-07T06:51:11.795Z,97617.33
2023-05-07T06:53:42.036Z,97615.87
2023-05-07T06:56:11.925Z,97607.87
2023-05-07T06:58:41.935Z,97604.49
2023-05-07T07:01:10.682Z,97610.58
2023-05-07T07:03:38.752Z,97612.14
2023-05-07T07:06:06.501Z,97613.95
2023-05-07T07:08:35.074Z,97617.66
2023-05-07T07:11:03.370Z,97625.88
2023-05-07T07:13:31.425Z,97628.11
2023-05-07T07:15:59.427Z,97628.66
2023-05-07T07:18:27.314Z,97632.91
2023-05-07T07:20:55.400Z,97634.94
2023-05-07T07:23:23.061Z,97641.75
2023-05-07T07:25:51.271Z,97644.32
2023-05-07T07:28:35.944Z,97650.34
2023-05-07T07:31:30.338Z,97646.34
2023-05-07T07:34:03.110Z,97655.89
2023-05-07T07:36:57.726Z,97655.58
2023-05-07T07:39:28.140Z,97660.19
2023-05-07T07:41:56.168Z,97663.16
2023-05-07T07:44:23.963Z,97662.67
2023-05-07T07:46:53.465Z,97662.63
2023-05-07T07:49:23.916Z,97661.36
2023-05-07T07:51:51.645Z,97657.01
2023-05-07T07:54:19.368Z,97657.41
2023-05-07T07:56:47.391Z,97658.80
2023-05-07T07:59:19.203Z,97659.98
2023-05-07T08:01:48.832Z,97656.78
2023-05-07T08:04:16.880Z,97654.14
2023-05-07T08:06:45.133Z,97661.45
2023-05-07T08:09:13.550Z,97659.15
2023-05-07T08:11:42.107Z,97658.16
2023-05-07T08:14:10.253Z,97655.08
2023-05-07T08:16:37.989Z,97659.67
2023-05-07T08:19:05.848Z,97657.03
2023-05-07T08:21:34.707Z,97650.17
2023-05-07T08:24:02.711Z,97652.52
2023-05-07T08:26:30.661Z,97650.59
2023-05-07T08:28:58.318Z,97650.75
2023-05-07T08:31:26.420Z,97653.93
2023-05-07T08:33:56.623Z,97653.44
2023-05-07T08:36:24.746Z,97656.65
2023-05-07T08:38:53.412Z,97653.70
2023-05-07T08:41:22.224Z,97653.07
2023-05-07T08:43:51.217Z,97645.89
2023-05-07T08:46:22.092Z,97648.19
2023-05-07T08:48:51.717Z,97644.59
2023-05-07T08:51:21.871Z,97647.76
2023-05-07T08:53:51.122Z,97641.75
2023-05-07T08:56:22.247Z,97647.05
2023-05-07T08:58:58.767Z,97649.27
2023-05-07T09:01:32.445Z,97648.55
2023-05-07T09:04:00.332Z,97652.83
2023-05-07T09:06:28.474Z,97658.27
2023-05-07T09:08:58.832Z,97656.46
2023-05-07T09:11:28.950Z,97657.41
2023-05-07T09:14:09.533Z,97659.55
2023-05-07T09:16:39.650Z,97658.48
2023-05-07T09:19:08.746Z,97655.46
2023-05-07T09:21:42.547Z,97666.41
2023-05-07T09:24:12.600Z,97669.12
2023-05-07T09:26:41.934Z,97673.53
2023-05-07T09:29:11.441Z,97676.81
2023-05-07T09:31:39.239Z,97669.30
2023-05-07T09:34:08.453Z,97667.58
2023-05-07T09:36:36.922Z,97675.41
2023-05-07T09:39:04.654Z,97672.98
2023-05-07T09:41:33.050Z,97685.11
2023-05-07T09:44:02.876Z,97679.15
2023-05-07T09:46:35.146Z,97676.12
2023-05-07T09:49:11.191Z,97676.86
2023-05-07T09:51:54.131Z,97684.00
2023-05-07T09:54:32.152Z,97676.31
2023-05-07T09:57:03.573Z,97679.81
2023-05-07T09:59:33.581Z,97686.02
2023-05-07T10:02:05.392Z,97682.28
2023-05-07T10:04:35.376Z,97685.36
2023-05-07T10:07:05.536Z,97683.34
2023-05-07T10:09:35.699Z,97678.86
2023-05-07T10:12:05.964Z,97681.82
2023-05-07T10:14:35.038Z,97681.65
2023-05-07T10:17:03.476Z,97684.93
2023-05-07T10:19:33.725Z,97680.66
2023-05-07T10:22:06.720Z,97679.06
2023-05-07T10:24:38.010Z,97684.48
2023-05-07T10:27:12.069Z,97685.27
2023-05-07T10:30:04.485Z,97684.56
2023-05-07T10:32:43.932Z,97679.93
2023-05-07T10:35:18.879Z,97677.45
2023-05-07T10:37:48.963Z,97670.68
2023-05-07T10:40:20.462Z,97676.31
2023-05-07T10:43:11.029Z,97670.97
2023-05-07T10:45:43.811Z,97666.99
2023-05-07T10:48:29.688Z,97664.16
2023-05-07T10:50:48.934Z,97668.18
2023-05-07T10:53:24.247Z,97664.61
2023-05-07T10:56:22.111Z,97667.20
2023-05-07T10:58:54.312Z,97671.27
2023-05-07T11:01:51.499Z,97666.75
2023-05-07T11:04:21.912Z,97669.95
2023-05-07T11:07:15.056Z,97667.16
2023-05-07T11:10:01.116Z,97666.95
2023-05-07T11:12:52.983Z,97669.66
2023-05-07T11:15:38.597Z,97671.31
2023-05-07T11:18:08.003Z,97677.84
2023-05-07T11:20:53.066Z,97676.03
2023-05-07T11:23:41.021Z,97677.39
2023-05-07T11:26:13.583Z,97670.24
2023-05-07T11:28:43.808Z,97672.41
2023-05-07T11:31:12.474Z,97668.80
2023-05-07T11:33:41.819Z,97668.72
2023-05-07T11:36:11.656Z,97663.50
2023-05-07T11:38:41.501Z,97663.98
2023-05-07T11:41:09.284Z,97663.41
2023-05-07T11:43:37.921Z,97662.39
2023-05-07T11:46:14.863Z,97665.55
2023-05-07T11:48:42.483Z,97664.77
2023-05-07T11:51:12.073Z,97657.12
2023-05-07T11:53:43.806Z,97654.33
2023-05-07T11:56:14.252Z,97649.39
2023-05-07T11:58:43.608Z,97648.16
2023-05-07T12:01:13.527Z,97645.74
2023-05-07T12:03:44.464Z,97649.77
2023-05-07T12:06:14.481Z,97642.20
2023-05-07T12:08:45.773Z,97642.04
2023-05-07T12:11:26.306Z,97638.46
2023-05-07T12:13:59.100Z,97635.88
2023-05-07T12:16:26.049Z,97633.91
2023-05-07T12:18:55.535Z,97634.37
2023-05-07T12:21:24.920Z,97636.63
2023-05-07T12:23:53.270Z,97628.48
2023-05-07T12:26:21.967Z,97623.02
2023-05-07T12:28:50.390Z,97626.05
2023-05-07T12:31:18.181Z,97617.23
2023-05-07T12:33:46.407Z,97618.18
2023-05-07T12:36:14.455Z,97620.17
2023-05-07T12:38:42.486Z,97621.74
2023-05-07T12:41:13.011Z,97608.03
2023-05-07T12:43:40.970Z,97601.79
2023-05-07T12:46:09.299Z,97599.92
2023-05-07T12:48:39.060Z,97595.56
2023-05-07T12:51:08.118Z,97596.98
2023-05-07T12:53:44.027Z,97587.20
2023-05-07T12:56:11.828Z,97584.05
2023-05-07T12:58:39.374Z,97576.48
2023-05-07T13:01:10.060Z,97580.63
2023-05-07T13:03:39.285Z,97580.84
2023-05-07T13:06:10.124Z,97573.07
2023-05-07T13:08:41.641Z,97570.01
2023-05-07T13:11:10.575Z,97573.58
2023-05-07T13:13:40.646Z,97567.64
2023-05-07T13:16:11.343Z,97566.15
2023-05-07T13:18:40.963Z,97563.16
2023-05-07T13:21:08.928Z,97569.77
2023-05-07T13:23:38.593Z,97562.38
2023-05-07T13:26:22.563Z,97561.66
2023-05-07T13:28:37.447Z,97550.28
2023-05-07T13:31:05.125Z,97546.98
2023-05-07T13:33:32.733Z,97545.48
2023-05-07T13:36:01.321Z,97547.13
2023-05-07T13:38:29.524Z,97549.56
2023-05-07T13:40:57.240Z,97544.83
2023-05-07T13:43:26.033Z,97546.23
2023-05-07T13:45:53.676Z,97542.48
2023-05-07T13:48:21.249Z,97540.65
2023-05-07T13:50:48.825Z,97541.72
2023-05-07T13:53:18.500Z,97543.91
2023-05-07T13:55:46.470Z,97541.23
2023-05-07T13:58:25.319Z,97535.86
2023-05-07T14:00:53.262Z,97536.05
2023-05-07T14:03:21.110Z,97537.80
2023-05-07T14:05:50.379Z,97534.31
2023-05-07T14:08:20.277Z,97536.11
2023-05-07T14:10:48.219Z,97539.16
2023-05-07T14:13:16.247Z,97537.52
2023-05-07T14:15:45.812Z,97543.08
2023-05-07T14:18:13.923Z,97541.52
2023-05-07T14:20:43.733Z,97542.52
2023-05-07T14:23:11.242Z,97536.50
2023-05-07T14:25:38.879Z,97536.78
2023-05-07T14:28:08.815Z,97537.63
2023-05-07T14:30:36.368Z,97532.38
2023-05-07T14:33:04.761Z,97536.38
2023-05-07T14:35:32.700Z,97528.27
2023-05-07T14:38:03.847Z,97522.69
2023-05-07T14:40:32.397Z,97524.34
2023-05-07T14:43:00.760Z,97528.48
2023-05-07T14:45:28.278Z,97527.75
2023-05-07T14:47:55.980Z,97526.16
2023-05-07T14:50:23.721Z,97527.89
2023-05-07T14:52:51.394Z,97525.56
2023-05-07T14:55:18.877Z,97526.48
2023-05-07T14:57:46.478Z,97520.42
2023-05-07T15:00:14.735Z,97525.22
2023-05-07T15:02:42.455Z,97522.69
2023-05-07T15:05:10.306Z,97523.76
2023-05-07T15:07:38.222Z,97526.80
2023-05-07T15:10:06.813Z,97530.59
2023-05-07T15:12:34.338Z,97528.34
2023-05-07T15:15:02.475Z,97523.80
2023-05-07T15:17:33.089Z,97522.39
2023-05-07T15:20:00.670Z,97521.52
2023-05-07T15:22:28.299Z,97520.11
2023-05-07T15:24:57.174Z,97511.09
2023-05-07T15:27:24.955Z,97511.81
2023-05-07T15:29:52.713Z,97506.17
2023-05-07T15:32:20.883Z,97496.61
2023-05-07T15:34:48.647Z,97495.39
2023-05-07T15:37:16.242Z,97496.55
2023-05-07T15:39:46.564Z,97493.83
2023-05-07T15:42:16.968Z,97489.90
2023-05-07T15:44:44.353Z,97493.56
2023-05-07T15:47:14.214Z,97492.35
2023-05-07T15:49:42.765Z,97494.09
2023-05-07T15:52:17.104Z,97495.59
2023-05-07T15:54:44.803Z,97490.73
2023-05-07T15:57:12.484Z,97489.31
2023-05-07T15:59:39.990Z,97488.53
2023-05-07T16:02:07.877Z,97484.60
2023-05-07T16:04:35.458Z,97483.19
2023-05-07T16:07:03.535Z,97484.69
2023-05-07T16:09:31.436Z,97481.33
2023-05-07T16:12:00.550Z,97482.28
2023-05-07T16:14:28.034Z,97475.63
2023-05-07T16:16:58.985Z,97473.06
2023-05-07T16:19:26.778Z,97480.42
2023-05-07T16:21:54.680Z,97482.70
2023-05-07T16:24:24.433Z,97487.15
2023-05-07T16:26:55.354Z,97481.45
2023-05-07T16:29:23.308Z,97478.87
2023-05-07T16:31:52.729Z,97481.73
2023-05-07T16:34:21.339Z,97482.10
2023-05-07T16:36:49.206Z,97488.89
2023-05-07T16:39:17.123Z,97492.52
2023-05-07T16:41:47.631Z,97492.25
2023-05-07T16:44:15.746Z,97488.11
2023-05-07T16:46:43.418Z,97486.69
2023-05-07T16:49:11.947Z,97490.48
2023-05-07T16:51:41.737Z,97485.91
2023-05-07T16:54:09.467Z,97486.21
2023-05-07T16:56:43.524Z,97496.99
2023-05-07T16:59:13.347Z,97490.92
2023-05-07T17:01:42.253Z,97487.56
2023-05-07T17:04:10.204Z,97483.05
2023-05-07T17:06:37.693Z,97483.73
2023-05-07T17:09:05.304Z,97485.45
2023-05-07T17:11:34.662Z,97491.59
2023-05-07T17:14:04.815Z,97499.66
2023-05-07T17:16:31.903Z,97501.72
2023-05-07T17:18:59.587Z,97504.56
2023-05-07T17:21:28.931Z,97510.56
2023-05-07T17:23:56.656Z,97513.20
2023-05-07T17:26:24.390Z,97520.03
2023-05-07T17:28:52.193Z,97525.30
2023-05-07T17:31:19.660Z,97531.84
2023-05-07T17:33:47.093Z,97534.55
2023-05-07T17:36:15.075Z,97547.85
2023-05-07T17:38:42.363Z,97557.50
2023-05-07T17:41:10.177Z,97581.84
2023-05-07T17:43:37.827Z,97591.20
2023-05-07T17:46:05.542Z,97597.27
2023-05-07T17:48:33.168Z,97600.49
2023-05-07T17:51:02.686Z,97609.22
2023-05-07T17:53:30.690Z,97618.39
2023-05-07T17:55:58.616Z,97629.70
2023-05-07T17:58:26.872Z,97635.23
2023-05-07T18:00:55.100Z,97640.00
2023-05-07T18:06:27.664Z,97650.61
2023-05-07T18:09:20.365Z,97649.25
2023-05-07T18:24:37.900Z,97648.94
2023-05-07T18:27:06.240Z,97650.28
2023-05-07T18:29:34.122Z,97647.69
2023-05-07T18:32:03.518Z,97651.06
2023-05-07T18:34:31.436Z,97644.44
2023-05-07T18:37:01.295Z,97645.00
2023-05-07T18:39:29.058Z,97646.58
2023-05-07T18:41:57.838Z,97650.06
2023-05-07T18:44:27.301Z,97645.33
2023-05-07T18:46:55.801Z,97654.56
2023-05-07T18:49:23.856Z,97647.81
2023-05-07T18:52:12.385Z,97639.92
2023-05-07T18:57:58.703Z,97632.02
2023-05-07T19:00:43.866Z,97631.55
2023-05-07T19:03:17.565Z,97638.41
2023-05-07T19:05:52.480Z,97636.63
2023-05-07T19:08:19.966Z,97642.59
2023-05-07T19:10:47.720Z,97644.62
2023-05-07T19:13:18.511Z,97640.78
2023-05-07T19:15:47.740Z,97636.16
2023-05-07T19:18:15.401Z,97639.78
2023-05-07T19:20:43.012Z,97643.59
2023-05-07T19:23:11.666Z,97645.62
2023-05-07T19:25:39.593Z,97643.95
2023-05-07T19:28:07.339Z,97635.16
2023-05-07T19:30:40.397Z,97636.84
2023-05-07T19:33:09.219Z,97632.21
2023-05-07T19:35:37.581Z,97621.73
2023-05-07T19:38:05.752Z,97612.05
2023-05-07T19:40:34.124Z,97610.34
2023-05-07T19:43:02.902Z,97606.27
2023-05-07T19:45:32.664Z,97600.41
2023-05-07T19:48:00.357Z,97594.89
2023-05-07T19:50:28.140Z,97595.78
2023-05-07T19:52:55.960Z,97599.26
2023-05-07T19:55:23.946Z,97605.45
2023-05-07T19:57:51.742Z,97610.40
2023-05-07T20:00:41.517Z,97613.22
2023-05-07T20:03:13.483Z,97616.95
2023-05-07T20:05:41.570Z,97606.84
2023-05-07T20:08:10.726Z,97587.45
2023-05-07T20:10:39.540Z,97598.08
2023-05-07T20:13:07.811Z,97593.56
2023-05-07T20:15:38.980Z,97599.41
2023-05-07T20:18:13.228Z,97606.91
2023-05-07T20:20:41.159Z,97599.73
2023-05-07T20:23:11.067Z,97625.13
2023-05-07T20:25:45.588Z,97622.17
2023-05-07T20:28:14.181Z,97626.47
2023-05-07T20:30:42.216Z,97633.53
2023-05-07T20:33:11.112Z,97626.91
2023-05-07T20:35:39.113Z,97625.78
2023-05-07T20:38:11.199Z,97628.70
2023-05-07T20:40:40.166Z,97637.49
2023-05-07T20:43:07.983Z,97631.75
2023-05-07T20:45:35.973Z,97629.61
2023-05-07T20:48:04.363Z,97640.53
2023-05-07T20:50:33.274Z,97643.48
2023-05-07T20:53:01.451Z,97638.87
2023-05-07T20:55:30.179Z,97636.39
2023-05-07T20:58:01.734Z,97642.79
2023-05-07T21:00:39.004Z,97641.69
2023-05-07T21:03:08.406Z,97630.89
2023-05-07T21:05:36.447Z,97628.07
2023-05-07T21:08:05.376Z,97625.25
2023-05-07T21:10:35.098Z,97635.27
2023-05-07T21:13:05.680Z,97639.06
2023-05-07T21:15:43.999Z,97634.12
2023-05-07T21:18:11.834Z,97631.75
2023-05-07T21:20:40.107Z,97629.86
2023-05-07T21:23:09.606Z,97623.90
2023-05-07T21:25:40.809Z,97629.73
2023-05-07T21:28:09.825Z,97626.25
2023-05-07T21:30:39.966Z,97627.03
2023-05-07T21:33:12.453Z,97624.80
2023-05-07T21:35:40.659Z,97626.59
2023-05-07T21:38:12.206Z,97614.70
2023-05-07T21:40:40.181Z,97614.13
2023-05-07T21:43:08.099Z,97612.44
2023-05-07T21:45:36.001Z,97613.22
2023-05-07T21:48:03.790Z,97587.91
2023-05-07T21:50:32.073Z,97606.47
2023-05-07T21:53:02.884Z,97610.52
2023-05-07T21:55:31.715Z,97610.52
2023-05-07T21:58:05.365Z,97603.77
2023-05-07T22:00:37.798Z,97603.23
2023-05-07T22:03:05.992Z,97611.33
2023-05-07T22:05:35.786Z,97610.08
2023-05-07T22:08:05.029Z,97621.20
2023-05-07T22:10:33.003Z,97626.38
2023-05-07T22:13:02.254Z,97631.45
2023-05-07T22:15:35.465Z,97626.84
2023-05-07T22:18:03.025Z,97617.39
2023-05-07T22:20:31.060Z,97628.63
2023-05-07T22:22:58.926Z,97627.95
2023-05-07T22:25:26.830Z,97627.50
2023-05-07T22:27:54.934Z,97622.20
2023-05-07T22:30:23.090Z,97625.25
2023-05-07T22:32:55.224Z,97627.48
2023-05-07T22:35:23.295Z,97627.04
2023-05-07T22:37:51.060Z,97632.19
2023-05-07T22:40:18.856Z,97627.13
2023-05-07T22:42:46.665Z,97620.17
2023-05-07T22:45:15.616Z,97622.05
2023-05-07T22:47:43.535Z,97618.56
2023-05-07T22:50:11.857Z,97613.17
2023-05-07T22:52:39.846Z,97618.34
2023-05-07T22:55:09.323Z,97622.17
2023-05-07T22:57:36.874Z,97613.52
2023-05-07T23:00:07.928Z,97608.44
2023-05-07T23:02:37.351Z,97608.88
2023-05-07T23:05:05.794Z,97612.11
2023-05-07T23:07:35.209Z,97613.02
2023-05-07T23:10:03.719Z,97610.06
2023-05-07T23:12:31.381Z,97608.28
2023-05-07T23:15:00.775Z,97603.45
2023-05-07T23:17:28.306Z,97601.53
2023-05-07T23:19:56.428Z,97603.66
2023-05-07T23:22:24.019Z,97597.70
2023-05-07T23:24:54.337Z,97600.97
2023-05-07T23:27:23.633Z,97588.70
2023-05-07T23:29:56.939Z,97587.48
2023-05-07T23:32:24.571Z,97590.17
2023-05-07T23:34:54.564Z,97592.31
2023-05-07T23:37:22.943Z,97592.87
2023-05-07T23:39:56.236Z,97592.87
2023-05-07T23:42:25.699Z,97586.48
2023-05-07T23:44:55.199Z,97591.41
2023-05-07T23:47:26.432Z,97589.58
2023-05-07T23:49:55.847Z,97590.80
2023-05-07T23:52:25.411Z,97587.42
2023-05-07T23:54:53.014Z,97589.20
2023-05-07T23:57:20.685Z,97585.94
2023-05-07T23:59:51.460Z,97582.80
